BTK6330 WATO-WADD
Flight info
| Callsign | BTK6330 |
|---|---|
| Flight time | 0h 47m |
| Altitude | 32000 |
| Route | TOGEM W42 PEBGU |
| Aircraft | A320/M-SDE3FGHIRWY/LB1 |
Departure
| Time | 2026-04-15 21:16 |
|---|---|
| Airport | Komodo Airport (WATO) |
Arrival
| Time | 2026-04-15 22:03 |
|---|---|
| Airport | Denpasar I Gusti Ngurah Rai International Airport (WADD) |
| Time | Latitude | Longitude | Altitude | Speed | Heading |
|---|---|---|---|---|---|
| 2026-04-15 20:54 | -8.48910 | 119.88802 | 233 ft | 0 kts | 263° |
| 2026-04-15 21:08 | -8.48909 | 119.88813 | 232 ft | 3 kts | 258° |
| 2026-04-15 21:08 | -8.48903 | 119.88832 | 232 ft | 3 kts | 237° |
| 2026-04-15 21:08 | -8.48891 | 119.88845 | 232 ft | 3 kts | 200° |
| 2026-04-15 21:08 | -8.48878 | 119.88848 | 232 ft | 0 kts | 173° |
| 2026-04-15 21:11 | -8.48881 | 119.88848 | 232 ft | 3 kts | 173° |
| 2026-04-15 21:11 | -8.48923 | 119.88853 | 231 ft | 8 kts | 173° |
| 2026-04-15 21:12 | -8.48979 | 119.88860 | 232 ft | 8 kts | 173° |
| 2026-04-15 21:12 | -8.49026 | 119.88866 | 232 ft | 6 kts | 173° |
| 2026-04-15 21:12 | -8.49064 | 119.88871 | 232 ft | 6 kts | 173° |
| 2026-04-15 21:12 | -8.49133 | 119.88880 | 232 ft | 11 kts | 173° |
| 2026-04-15 21:13 | -8.49212 | 119.88890 | 233 ft | 6 kts | 173° |
| 2026-04-15 21:13 | -8.49244 | 119.88904 | 232 ft | 4 kts | 126° |
| 2026-04-15 21:13 | -8.49245 | 119.88920 | 232 ft | 0 kts | 86° |
| 2026-04-15 21:14 | -8.49244 | 119.88934 | 233 ft | 7 kts | 86° |
| 2026-04-15 21:14 | -8.49238 | 119.88985 | 229 ft | 5 kts | 81° |
| 2026-04-15 21:14 | -8.49220 | 119.89003 | 231 ft | 2 kts | 16° |
| 2026-04-15 21:14 | -8.49205 | 119.89003 | 230 ft | 4 kts | 355° |
| 2026-04-15 21:15 | -8.49189 | 119.89000 | 234 ft | 0 kts | 354° |
| 2026-04-15 21:15 | -8.49184 | 119.89000 | 229 ft | 8 kts | 354° |
| 2026-04-15 21:15 | -8.48850 | 119.88957 | 236 ft | 85 kts | 353° |
| 2026-04-15 21:15 | -8.48053 | 119.88855 | 235 ft | 143 kts | 353° |
| 2026-04-15 21:16 | -8.46949 | 119.88717 | 512 ft | 164 kts | 353° |
| 2026-04-15 21:16 | -8.45811 | 119.88661 | 1107 ft | 166 kts | 5° |
| 2026-04-15 21:16 | -8.44645 | 119.88767 | 1702 ft | 171 kts | 5° |
| 2026-04-15 21:16 | -8.43448 | 119.88660 | 2183 ft | 184 kts | 335° |
| 2026-04-15 21:17 | -8.42477 | 119.87761 | 2486 ft | 203 kts | 298° |
| 2026-04-15 21:17 | -8.41856 | 119.86383 | 2700 ft | 229 kts | 294° |
| 2026-04-15 21:17 | -8.41162 | 119.84830 | 2986 ft | 257 kts | 295° |
| 2026-04-15 21:17 | -8.40390 | 119.83126 | 3512 ft | 270 kts | 295° |
| 2026-04-15 21:18 | -8.39601 | 119.81395 | 4455 ft | 272 kts | 295° |
| 2026-04-15 21:18 | -8.38801 | 119.79650 | 5326 ft | 275 kts | 295° |
| 2026-04-15 21:18 | -8.37994 | 119.77886 | 6178 ft | 279 kts | 293° |
| 2026-04-15 21:18 | -8.37487 | 119.75994 | 6964 ft | 282 kts | 275° |
| 2026-04-15 21:19 | -8.37584 | 119.74018 | 7757 ft | 284 kts | 257° |
| 2026-04-15 21:19 | -8.38283 | 119.72153 | 8569 ft | 287 kts | 241° |
| 2026-04-15 21:19 | -8.39269 | 119.70393 | 9376 ft | 289 kts | 240° |
| 2026-04-15 21:19 | -8.40263 | 119.68615 | 10140 ft | 292 kts | 240° |
| 2026-04-15 21:20 | -8.41290 | 119.66770 | 10459 ft | 313 kts | 240° |
| 2026-04-15 21:20 | -8.42392 | 119.64780 | 10641 ft | 336 kts | 241° |
| 2026-04-15 21:20 | -8.43556 | 119.62676 | 11056 ft | 348 kts | 240° |
| 2026-04-15 21:20 | -8.44752 | 119.60527 | 11658 ft | 353 kts | 240° |
| 2026-04-15 21:21 | -8.45964 | 119.58354 | 12280 ft | 357 kts | 240° |
| 2026-04-15 21:21 | -8.47188 | 119.56156 | 12903 ft | 361 kts | 240° |
| 2026-04-15 21:21 | -8.48429 | 119.53928 | 13510 ft | 366 kts | 240° |
| 2026-04-15 21:21 | -8.49682 | 119.51681 | 14074 ft | 369 kts | 240° |
| 2026-04-15 21:22 | -8.50952 | 119.49402 | 14552 ft | 375 kts | 240° |
| 2026-04-15 21:22 | -8.52235 | 119.47089 | 15054 ft | 380 kts | 240° |
| 2026-04-15 21:22 | -8.53538 | 119.44743 | 15540 ft | 385 kts | 240° |
| 2026-04-15 21:22 | -8.54853 | 119.42368 | 16037 ft | 390 kts | 242° |
| 2026-04-15 21:23 | -8.55906 | 119.39831 | 16499 ft | 395 kts | 253° |
| 2026-04-15 21:23 | -8.56454 | 119.37096 | 16967 ft | 400 kts | 265° |
| 2026-04-15 21:23 | -8.56478 | 119.34272 | 17432 ft | 404 kts | 274° |
| 2026-04-15 21:23 | -8.56334 | 119.31419 | 17899 ft | 409 kts | 274° |
| 2026-04-15 21:24 | -8.56195 | 119.28532 | 18345 ft | 413 kts | 273° |
| 2026-04-15 21:24 | -8.56061 | 119.25620 | 18766 ft | 417 kts | 273° |
| 2026-04-15 21:24 | -8.55928 | 119.22680 | 19178 ft | 420 kts | 273° |
| 2026-04-15 21:24 | -8.55793 | 119.19719 | 19596 ft | 423 kts | 272° |
| 2026-04-15 21:25 | -8.55655 | 119.16737 | 20015 ft | 426 kts | 272° |
| 2026-04-15 21:25 | -8.55517 | 119.13739 | 20439 ft | 429 kts | 272° |
| 2026-04-15 21:25 | -8.55382 | 119.10759 | 20858 ft | 431 kts | 272° |
| 2026-04-15 21:25 | -8.55242 | 119.07723 | 21274 ft | 434 kts | 272° |
| 2026-04-15 21:26 | -8.55101 | 119.04667 | 21676 ft | 437 kts | 271° |
| 2026-04-15 21:26 | -8.54957 | 119.01596 | 22077 ft | 439 kts | 271° |
| 2026-04-15 21:26 | -8.54810 | 118.98508 | 22487 ft | 442 kts | 271° |
| 2026-04-15 21:26 | -8.54662 | 118.95399 | 22887 ft | 444 kts | 271° |
| 2026-04-15 21:27 | -8.54516 | 118.92275 | 23299 ft | 446 kts | 271° |
| 2026-04-15 21:27 | -8.54370 | 118.89133 | 23659 ft | 449 kts | 271° |
| 2026-04-15 21:27 | -8.54223 | 118.85979 | 23984 ft | 451 kts | 271° |
| 2026-04-15 21:27 | -8.54072 | 118.82808 | 24290 ft | 453 kts | 271° |
| 2026-04-15 21:28 | -8.53919 | 118.79622 | 24607 ft | 455 kts | 271° |
| 2026-04-15 21:28 | -8.53763 | 118.76423 | 24922 ft | 457 kts | 271° |
| 2026-04-15 21:28 | -8.53606 | 118.73207 | 25234 ft | 459 kts | 271° |
| 2026-04-15 21:28 | -8.53448 | 118.69976 | 25546 ft | 461 kts | 271° |
| 2026-04-15 21:29 | -8.53290 | 118.66732 | 25839 ft | 463 kts | 271° |
| 2026-04-15 21:29 | -8.53138 | 118.63477 | 26158 ft | 465 kts | 270° |
| 2026-04-15 21:29 | -8.52995 | 118.60212 | 26466 ft | 466 kts | 270° |
| 2026-04-15 21:29 | -8.52854 | 118.56934 | 26761 ft | 468 kts | 270° |
| 2026-04-15 21:30 | -8.52712 | 118.53642 | 27051 ft | 470 kts | 270° |
| 2026-04-15 21:30 | -8.52568 | 118.50332 | 27346 ft | 473 kts | 270° |
| 2026-04-15 21:30 | -8.52419 | 118.47008 | 27624 ft | 475 kts | 270° |
| 2026-04-15 21:30 | -8.52265 | 118.43669 | 27906 ft | 477 kts | 270° |
| 2026-04-15 21:31 | -8.51954 | 118.36950 | 28450 ft | 481 kts | 270° |
| 2026-04-15 21:31 | -8.51851 | 118.34708 | 28629 ft | 482 kts | 270° |
| 2026-04-15 21:32 | -8.51491 | 118.26774 | 29213 ft | 486 kts | 270° |
| 2026-04-15 21:32 | -8.51385 | 118.24509 | 29373 ft | 488 kts | 270° |
| 2026-04-15 21:32 | -8.51226 | 118.21077 | 29618 ft | 490 kts | 270° |
| 2026-04-15 21:32 | -8.51068 | 118.17636 | 29860 ft | 491 kts | 270° |
| 2026-04-15 21:33 | -8.50910 | 118.14181 | 30085 ft | 493 kts | 270° |
| 2026-04-15 21:33 | -8.50749 | 118.10715 | 30288 ft | 495 kts | 270° |
| 2026-04-15 21:33 | -8.50586 | 118.07245 | 30564 ft | 494 kts | 271° |
| 2026-04-15 21:33 | -8.50422 | 118.03782 | 30861 ft | 493 kts | 271° |
| 2026-04-15 21:34 | -8.50262 | 118.00320 | 31160 ft | 492 kts | 271° |
| 2026-04-15 21:34 | -8.50103 | 117.96870 | 31463 ft | 491 kts | 271° |
| 2026-04-15 21:34 | -8.49942 | 117.93423 | 31774 ft | 491 kts | 271° |
| 2026-04-15 21:34 | -8.49780 | 117.89984 | 31910 ft | 489 kts | 271° |
| 2026-04-15 21:35 | -8.49619 | 117.86568 | 31943 ft | 485 kts | 271° |
| 2026-04-15 21:35 | -8.49298 | 117.79796 | 31934 ft | 482 kts | 271° |
| 2026-04-15 21:36 | -8.48972 | 117.73034 | 31935 ft | 482 kts | 271° |
| 2026-04-15 21:36 | -8.48650 | 117.66276 | 31936 ft | 482 kts | 271° |
| 2026-04-15 21:37 | -8.48330 | 117.59563 | 31936 ft | 481 kts | 271° |
| 2026-04-15 21:37 | -8.48011 | 117.52763 | 31702 ft | 482 kts | 271° |
| 2026-04-15 21:37 | -8.47853 | 117.49432 | 31131 ft | 480 kts | 271° |
| 2026-04-15 21:38 | -8.47692 | 117.46069 | 30432 ft | 479 kts | 271° |
| 2026-04-15 21:38 | -8.47567 | 117.42710 | 29704 ft | 477 kts | 267° |
| 2026-04-15 21:38 | -8.47856 | 117.39392 | 29046 ft | 471 kts | 258° |
| 2026-04-15 21:38 | -8.48610 | 117.36199 | 28416 ft | 465 kts | 251° |
| 2026-04-15 21:39 | -8.49487 | 117.33069 | 27796 ft | 461 kts | 252° |
| 2026-04-15 21:39 | -8.50350 | 117.29962 | 27182 ft | 458 kts | 252° |
| 2026-04-15 21:39 | -8.51201 | 117.26870 | 26573 ft | 455 kts | 252° |
| 2026-04-15 21:39 | -8.52040 | 117.23803 | 25970 ft | 452 kts | 252° |
| 2026-04-15 21:40 | -8.52878 | 117.20752 | 25361 ft | 449 kts | 252° |
| 2026-04-15 21:40 | -8.53718 | 117.17719 | 24761 ft | 447 kts | 252° |
| 2026-04-15 21:40 | -8.54553 | 117.14711 | 24186 ft | 443 kts | 252° |
| 2026-04-15 21:40 | -8.55381 | 117.11723 | 23618 ft | 440 kts | 252° |
| 2026-04-15 21:41 | -8.56205 | 117.08755 | 22996 ft | 437 kts | 252° |
| 2026-04-15 21:41 | -8.57010 | 117.05829 | 22684 ft | 427 kts | 253° |
| 2026-04-15 21:41 | -8.57783 | 117.02949 | 22583 ft | 424 kts | 253° |
| 2026-04-15 21:41 | -8.58542 | 117.00078 | 22411 ft | 422 kts | 253° |
| 2026-04-15 21:42 | -8.59293 | 116.97214 | 22224 ft | 421 kts | 253° |
| 2026-04-15 21:42 | -8.60041 | 116.94358 | 22047 ft | 420 kts | 253° |
| 2026-04-15 21:42 | -8.60786 | 116.91513 | 21868 ft | 419 kts | 253° |
| 2026-04-15 21:42 | -8.61532 | 116.88674 | 21687 ft | 418 kts | 253° |
| 2026-04-15 21:43 | -8.62282 | 116.85837 | 21507 ft | 417 kts | 253° |
| 2026-04-15 21:43 | -8.63035 | 116.83019 | 21327 ft | 415 kts | 253° |
| 2026-04-15 21:43 | -8.63787 | 116.80209 | 21151 ft | 414 kts | 253° |
| 2026-04-15 21:43 | -8.64534 | 116.77407 | 20972 ft | 413 kts | 253° |
| 2026-04-15 21:44 | -8.65278 | 116.74606 | 20795 ft | 412 kts | 253° |
| 2026-04-15 21:44 | -8.66019 | 116.71815 | 20620 ft | 411 kts | 253° |
| 2026-04-15 21:44 | -8.66757 | 116.69033 | 20447 ft | 410 kts | 254° |
| 2026-04-15 21:44 | -8.67492 | 116.66256 | 20266 ft | 409 kts | 254° |
| 2026-04-15 21:45 | -8.68225 | 116.63483 | 20092 ft | 408 kts | 254° |
| 2026-04-15 21:45 | -8.68959 | 116.60718 | 19914 ft | 407 kts | 254° |
| 2026-04-15 21:45 | -8.69688 | 116.57961 | 19752 ft | 406 kts | 254° |
| 2026-04-15 21:45 | -8.70415 | 116.55208 | 19571 ft | 405 kts | 254° |
| 2026-04-15 21:46 | -8.71139 | 116.52466 | 19402 ft | 403 kts | 254° |
| 2026-04-15 21:46 | -8.71860 | 116.49733 | 19229 ft | 402 kts | 254° |
| 2026-04-15 21:46 | -8.72580 | 116.47007 | 19060 ft | 401 kts | 254° |
| 2026-04-15 21:46 | -8.73299 | 116.44285 | 18891 ft | 400 kts | 254° |
| 2026-04-15 21:47 | -8.74017 | 116.41570 | 18721 ft | 399 kts | 254° |
| 2026-04-15 21:47 | -8.74734 | 116.38860 | 18552 ft | 399 kts | 254° |
| 2026-04-15 21:47 | -8.75448 | 116.36157 | 18380 ft | 398 kts | 254° |
| 2026-04-15 21:47 | -8.76159 | 116.33458 | 18209 ft | 397 kts | 255° |
| 2026-04-15 21:48 | -8.76868 | 116.30770 | 18026 ft | 395 kts | 255° |
| 2026-04-15 21:48 | -8.77609 | 116.28097 | 17743 ft | 395 kts | 252° |
| 2026-04-15 21:48 | -8.78459 | 116.25444 | 17027 ft | 398 kts | 250° |
| 2026-04-15 21:48 | -8.79391 | 116.22812 | 16413 ft | 397 kts | 249° |
| 2026-04-15 21:49 | -8.80354 | 116.20201 | 15812 ft | 396 kts | 249° |
| 2026-04-15 21:49 | -8.81312 | 116.17613 | 15218 ft | 387 kts | 249° |
| 2026-04-15 21:49 | -8.82214 | 116.15136 | 14654 ft | 373 kts | 250° |
| 2026-04-15 21:49 | -8.83081 | 116.12712 | 14109 ft | 362 kts | 250° |
| 2026-04-15 21:50 | -8.83919 | 116.10335 | 13548 ft | 357 kts | 250° |
| 2026-04-15 21:50 | -8.84746 | 116.07960 | 12991 ft | 357 kts | 251° |
| 2026-04-15 21:50 | -8.85230 | 116.05538 | 12714 ft | 349 kts | 267° |
| 2026-04-15 21:50 | -8.85002 | 116.03108 | 12479 ft | 348 kts | 279° |
| 2026-04-15 21:51 | -8.84588 | 116.00696 | 12221 ft | 348 kts | 279° |
| 2026-04-15 21:51 | -8.84167 | 115.98286 | 11977 ft | 347 kts | 279° |
| 2026-04-15 21:51 | -8.83746 | 115.95888 | 11736 ft | 346 kts | 279° |
| 2026-04-15 21:51 | -8.83327 | 115.93499 | 11493 ft | 344 kts | 279° |
| 2026-04-15 21:52 | -8.82909 | 115.91114 | 11252 ft | 344 kts | 279° |
| 2026-04-15 21:52 | -8.82495 | 115.88745 | 11014 ft | 341 kts | 279° |
| 2026-04-15 21:52 | -8.82084 | 115.86395 | 10709 ft | 338 kts | 279° |
| 2026-04-15 21:52 | -8.81679 | 115.84080 | 10471 ft | 329 kts | 279° |
| 2026-04-15 21:53 | -8.81288 | 115.81846 | 10345 ft | 316 kts | 279° |
| 2026-04-15 21:53 | -8.80911 | 115.79696 | 10226 ft | 305 kts | 279° |
| 2026-04-15 21:53 | -8.80546 | 115.77614 | 10037 ft | 297 kts | 279° |
| 2026-04-15 21:53 | -8.80190 | 115.75576 | 9939 ft | 293 kts | 279° |
| 2026-04-15 21:54 | -8.79834 | 115.73534 | 9571 ft | 296 kts | 279° |
| 2026-04-15 21:54 | -8.79477 | 115.71487 | 9156 ft | 295 kts | 279° |
| 2026-04-15 21:54 | -8.79119 | 115.69445 | 8756 ft | 294 kts | 279° |
| 2026-04-15 21:54 | -8.78762 | 115.67412 | 8369 ft | 293 kts | 279° |
| 2026-04-15 21:55 | -8.78406 | 115.65387 | 7978 ft | 292 kts | 279° |
| 2026-04-15 21:55 | -8.78053 | 115.63367 | 7588 ft | 291 kts | 279° |
| 2026-04-15 21:55 | -8.77703 | 115.61354 | 7204 ft | 290 kts | 279° |
| 2026-04-15 21:55 | -8.77354 | 115.59347 | 6811 ft | 289 kts | 279° |
| 2026-04-15 21:56 | -8.77007 | 115.57373 | 6427 ft | 289 kts | 279° |
| 2026-04-15 21:56 | -8.76654 | 115.55373 | 6031 ft | 289 kts | 279° |
| 2026-04-15 21:56 | -8.76301 | 115.53381 | 5633 ft | 288 kts | 279° |
| 2026-04-15 21:56 | -8.75950 | 115.51397 | 5248 ft | 286 kts | 279° |
| 2026-04-15 21:57 | -8.75607 | 115.49445 | 4868 ft | 276 kts | 280° |
| 2026-04-15 21:57 | -8.75277 | 115.47576 | 4505 ft | 265 kts | 279° |
| 2026-04-15 21:57 | -8.74959 | 115.45775 | 4158 ft | 256 kts | 279° |
| 2026-04-15 21:57 | -8.74647 | 115.44004 | 3812 ft | 256 kts | 279° |
| 2026-04-15 21:58 | -8.74337 | 115.42238 | 3452 ft | 253 kts | 280° |
| 2026-04-15 21:58 | -8.74044 | 115.40513 | 3133 ft | 245 kts | 276° |
| 2026-04-15 21:58 | -8.73968 | 115.38819 | 2857 ft | 235 kts | 268° |
| 2026-04-15 21:58 | -8.74026 | 115.37224 | 2748 ft | 221 kts | 266° |
| 2026-04-15 21:59 | -8.74092 | 115.35707 | 2643 ft | 210 kts | 266° |
| 2026-04-15 21:59 | -8.74151 | 115.34274 | 2509 ft | 199 kts | 266° |
| 2026-04-15 21:59 | -8.74205 | 115.32915 | 2381 ft | 188 kts | 266° |
| 2026-04-15 21:59 | -8.74255 | 115.31646 | 2289 ft | 172 kts | 266° |
| 2026-04-15 22:00 | -8.74301 | 115.30476 | 2235 ft | 163 kts | 266° |
| 2026-04-15 22:00 | -8.74346 | 115.29345 | 2095 ft | 160 kts | 266° |
| 2026-04-15 22:00 | -8.74390 | 115.28229 | 1912 ft | 158 kts | 266° |
| 2026-04-15 22:00 | -8.74434 | 115.27128 | 1720 ft | 157 kts | 266° |
| 2026-04-15 22:01 | -8.74477 | 115.26034 | 1527 ft | 155 kts | 266° |
| 2026-04-15 22:01 | -8.74519 | 115.24951 | 1325 ft | 154 kts | 266° |
| 2026-04-15 22:01 | -8.74562 | 115.23868 | 1129 ft | 154 kts | 266° |
| 2026-04-15 22:01 | -8.74604 | 115.22789 | 931 ft | 154 kts | 267° |
| 2026-04-15 22:02 | -8.74647 | 115.21707 | 761 ft | 151 kts | 268° |
| 2026-04-15 22:02 | -8.74688 | 115.20660 | 567 ft | 147 kts | 269° |
| 2026-04-15 22:02 | -8.74728 | 115.19633 | 380 ft | 146 kts | 269° |
| 2026-04-15 22:02 | -8.74769 | 115.18621 | 171 ft | 143 kts | 269° |
| 2026-04-15 22:03 | -8.74803 | 115.17628 | 32 ft | 136 kts | 270° |
| 2026-04-15 22:03 | -8.74836 | 115.16884 | 28 ft | 65 kts | 267° |
| 2026-04-15 22:03 | -8.74848 | 115.16581 | 29 ft | 31 kts | 268° |
| 2026-04-15 22:03 | -8.74827 | 115.16407 | 29 ft | 18 kts | 292° |
| 2026-04-15 22:04 | -8.74781 | 115.16306 | 30 ft | 7 kts | 305° |
| 2026-04-15 22:04 | -8.74752 | 115.16288 | 31 ft | 3 kts | 345° |
| 2026-04-15 22:04 | -8.74733 | 115.16288 | 32 ft | 6 kts | 7° |
| 2026-04-15 22:04 | -8.74703 | 115.16304 | 33 ft | 4 kts | 41° |
| 2026-04-15 22:05 | -8.74697 | 115.16322 | 33 ft | 2 kts | 82° |
| 2026-04-15 22:05 | -8.74696 | 115.16334 | 31 ft | 1 kts | 84° |
| 2026-04-15 22:05 | -8.74694 | 115.16339 | 33 ft | 0 kts | 72° |
| 2026-04-15 22:05 | -8.74694 | 115.16341 | 33 ft | 2 kts | 69° |
| 2026-04-15 22:06 | -8.74685 | 115.16346 | 33 ft | 1 kts | 11° |
| 2026-04-15 22:06 | -8.74654 | 115.16344 | 33 ft | 5 kts | 359° |
| 2026-04-15 22:06 | -8.74624 | 115.16343 | 33 ft | 4 kts | 359° |
| 2026-04-15 22:06 | -8.74604 | 115.16342 | 33 ft | 2 kts | 354° |
| 2026-04-15 22:07 | -8.74594 | 115.16341 | 33 ft | 1 kts | 354° |
| 2026-04-15 22:07 | -8.74585 | 115.16341 | 33 ft | 2 kts | 356° |
| 2026-04-15 22:07 | -8.74572 | 115.16341 | 33 ft | 1 kts | 359° |
| 2026-04-15 22:07 | -8.74564 | 115.16340 | 33 ft | 1 kts | 359° |
| 2026-04-15 22:08 | -8.74562 | 115.16340 | 33 ft | 0 kts | 359° |